Aeroporto :
LOGIN :

Iscrizione | Disclaimer

   EN    FR    IT 

 










Sommario :    VFR   VFR Marginale   IFR   IFR Intensivo   IFR Molto Intensivo
Visibilità : 
Base nubi : 
>= 8 km
>= 3000ft
5 / 8 km
1000 / 3000 ft
1500m / 5 km
500 / 1000 ft
800 / 1500m
200 / 500 ft
< 800m
< 200 ft
Simboli :   Temporali  Nebbia  Neve Forte  Precipitazioni Forti  Vento > 20 kt
SIGMETs :   Varie  Temporali  Ghiacco  Turbolenza  Onda orograficha  Ceneri Vulcaniche






- Altitudine del aeroporto : 42 ft
- Codice IATA : KGD


UMKK - Khrabrava - Kaliningrad

ULTIMO METAR :
  • 291300Z 17003MPS 130V190 9999 FEW020 13/09 Q1009 R24/19//95 NOSIG RMK QFE755/1007

METARs OBSOLETI :
  • 291230Z 17003MPS 140V200 9999 FEW020 13/09 Q1009 R24/19//95 NOSIG RMK QFE755/1007
  • 291200Z 19004MPS 9999 FEW020 13/09 Q1009 R24/19//95 NOSIG RMK QFE755/1007
  • 291130Z 19003MPS 140V220 9999 SCT014 13/10 Q1009 R24/290095 NOSIG RMK QFE755/1007
  • 291100Z 18004MPS 150V210 9999 BKN013 12/09 Q1009 R24/290095 NOSIG RMK QFE756/1008
  • 291030Z 19004MPS 160V220 9000 BKN011 12/09 Q1009 R24/290095 NOSIG RMK QFE756/1008

TAF TAF UMKK
Valido dal 29 a 12 ore il 30 a 12 ore UTC


291054Z 2912/3012 22005G10MPS 8000 FEW009 BKN016
TEMPO 2912/2924 19003G08MPS 3100 -SHRA BR BKN011 SCT020CB
TEMPO 3000/3009 1700 SHRA BR SCT004 BKN010CB
PROB40
TEMPO 3000/3007 0500 FG VV002
BECMG 3007/3009 27007G12MPS



MetMap, La meteo Aeronautica in un colpo d'occhio ! - Copyright ORBIFLY Dicembre 2007 - Disclaimer

ORBIFLY MET'MAP TEAM :

Programmazione e sviluppo : Alexandra Zaïnal
Concezione : Baudouin d'Aumeries
Aiuto per la programmazione : Marc-Olivier Méhu
Supporto tecnico e logistico : Manuel Goepfert
Aiuto per la traduzione : Arnaldo La Scala

Contatto : metmap@orbifly.com




FONTI E CREDITI :

   NOAA